Time;durP1;ratioP1;P1;durP2;ratioP2;P2;SDS_P1;SDS_P2;PMS_P1;PMS_P2;Temp;Humidity;BMP_temperature;BMP_pressure;BME280_temperature;BME280_humidity;BME280_pressure;Samples;Min_cycle;Max_cycle;Signal;HPM_P1;HPM_P2
2021/08/02 06:30:28;;;;;;;4.03;1.60;;;;;;;;;;12997805;22;19907;-87
2021/08/02 06:41:52;;;;;;;4.47;1.80;;;;;;;;;;12679813;23;20046;-85
2021/08/02 06:52:45;;;;;;;3.78;1.83;;;;;;;;;;12715949;23;20017;-86
2021/08/02 07:03:27;;;;;;;2.42;1.20;;;;;;;;;;12917442;23;20009;-85
2021/08/02 07:08:39;;;;;;;1.77;1.25;;;;;;;;;;12885489;23;20007;-83
2021/08/02 07:13:44;;;;;;;5.13;1.50;;;;;;;;;;12881492;23;19996;-85
2021/08/02 07:18:53;;;;;;;4.85;2.13;;;;;;;;;;12872871;23;20017;-84
2021/08/02 07:23:59;;;;;;;5.25;2.00;;;;;;;;;;12879341;23;20016;-84
2021/08/02 07:29:02;;;;;;;3.65;2.00;;;;;;;;;;12882300;23;20007;-83
2021/08/02 07:34:02;;;;;;;4.68;1.83;;;;;;;;;;12855790;23;20009;-84
2021/08/02 07:39:04;;;;;;;3.13;1.63;;;;;;;;;;12864325;23;20009;-85
2021/08/02 07:44:10;;;;;;;5.13;1.90;;;;;;;;;;12862361;23;20027;-87
2021/08/02 07:49:11;;;;;;;3.50;1.60;;;;;;;;;;12852325;23;20440;-85
2021/08/02 07:54:12;;;;;;;3.80;1.73;;;;;;;;;;12881067;23;20005;-86
2021/08/02 07:59:13;;;;;;;2.47;1.40;;;;;;;;;;12856329;23;20012;-85
2021/08/02 08:04:20;;;;;;;3.78;1.55;;;;;;;;;;12855777;23;20314;-86
2021/08/02 08:09:22;;;;;;;2.65;1.42;;;;;;;;;;12857473;23;20019;-87
2021/08/02 08:14:24;;;;;;;4.28;1.70;;;;;;;;;;12853828;23;20005;-86
2021/08/02 08:19:25;;;;;;;2.30;1.50;;;;;;;;;;12857905;23;20095;-86
2021/08/02 08:24:26;;;;;;;3.33;1.55;;;;;;;;;;12875759;23;20012;-84
2021/08/02 08:35:10;;;;;;;3.75;1.90;;;;;;;;;;12873432;23;20005;-85
2021/08/02 08:40:15;;;;;;;4.82;1.70;;;;;;;;;;12848548;23;20004;-86
2021/08/02 08:45:16;;;;;;;4.05;1.60;;;;;;;;;;12875348;23;20023;-87
2021/08/02 08:50:18;;;;;;;3.90;1.70;;;;;;;;;;12847385;23;20005;-86
2021/08/02 08:55:27;;;;;;;3.33;1.55;;;;;;;;;;12848751;23;20001;-86
2021/08/02 09:00:54;;;;;;;3.45;1.50;;;;;;;;;;12878678;23;20009;-86
2021/08/02 09:06:01;;;;;;;3.83;1.60;;;;;;;;;;12878656;23;20000;-86
2021/08/02 09:11:03;;;;;;;4.18;1.58;;;;;;;;;;12852535;23;20013;-86
2021/08/02 09:21:53;;;;;;;3.95;1.95;;;;;;;;;;12881365;23;20453;-85
2021/08/02 09:26:54;;;;;;;3.80;2.17;;;;;;;;;;12854739;23;20040;-85
2021/08/02 09:31:59;;;;;;;4.35;2.10;;;;;;;;;;12853526;23;20441;-84
2021/08/02 09:37:04;;;;;;;8.95;2.10;;;;;;;;;;12857422;23;20004;-85
2021/08/02 09:42:06;;;;;;;4.07;1.98;;;;;;;;;;12905986;23;19996;-85
2021/08/02 09:47:08;;;;;;;3.95;1.98;;;;;;;;;;12874220;23;20001;-86
2021/08/02 09:52:09;;;;;;;3.53;1.95;;;;;;;;;;12871029;23;20390;-87
2021/08/02 09:57:23;;;;;;;4.43;2.40;;;;;;;;;;12856887;23;20005;-86
2021/08/02 10:02:32;;;;;;;4.07;1.88;;;;;;;;;;12853948;23;20005;-86
2021/08/02 10:07:33;;;;;;;3.35;1.95;;;;;;;;;;12853785;23;20012;-87
2021/08/02 10:12:42;;;;;;;5.85;2.10;;;;;;;;;;12855626;23;20028;-87
2021/08/02 10:18:06;;;;;;;4.82;2.30;;;;;;;;;;12879204;23;20359;-86
2021/08/02 10:23:22;;;;;;;5.10;3.17;;;;;;;;;;12876756;23;20144;-85
2021/08/02 10:28:25;;;;;;;5.10;1.70;;;;;;;;;;12851755;23;20032;-84
2021/08/02 10:33:36;;;;;;;4.03;1.90;;;;;;;;;;12854105;23;20421;-85
2021/08/02 10:38:39;;;;;;;2.80;1.70;;;;;;;;;;12883840;23;20001;-83
2021/08/02 10:43:41;;;;;;;4.72;1.67;;;;;;;;;;12856701;23;20372;-83
2021/08/02 10:48:47;;;;;;;3.38;1.48;;;;;;;;;;12859214;23;20000;-85
2021/08/02 10:53:58;;;;;;;3.80;1.60;;;;;;;;;;12858395;23;20326;-85
2021/08/02 10:59:00;;;;;;;2.22;1.40;;;;;;;;;;12854518;23;20015;-85
2021/08/02 11:04:10;;;;;;;3.75;2.05;;;;;;;;;;12856990;23;20008;-85
2021/08/02 11:09:14;;;;;;;;;;;;;;;;;;12855225;23;20385;-85
2021/08/02 11:14:22;;;;;;;2.95;1.55;;;;;;;;;;12850764;23;19920;-85
2021/08/02 11:19:24;;;;;;;4.13;1.88;;;;;;;;;;12851203;23;20084;-85
2021/08/02 11:24:26;;;;;;;3.03;1.60;;;;;;;;;;12853170;23;20015;-85
2021/08/02 11:29:28;;;;;;;4.55;1.60;;;;;;;;;;12855614;23;20004;-85
2021/08/02 11:34:29;;;;;;;4.18;1.70;;;;;;;;;;12856807;23;20008;-85
2021/08/02 11:39:31;;;;;;;3.25;1.50;;;;;;;;;;12859435;23;20004;-86
2021/08/02 11:44:33;;;;;;;3.88;1.55;;;;;;;;;;12859311;23;20087;-84
2021/08/02 11:49:34;;;;;;;3.75;1.38;;;;;;;;;;12858040;23;20005;-85
2021/08/02 11:54:40;;;;;;;4.68;2.10;;;;;;;;;;12857414;23;20051;-85
2021/08/02 12:00:06;;;;;;;2.72;1.65;;;;;;;;;;12879699;23;20008;-86
2021/08/02 12:05:32;;;;;;;3.28;1.90;;;;;;;;;;12852028;23;20000;-86
2021/08/02 12:11:05;;;;;;;2.30;1.50;;;;;;;;;;12853140;23;20034;-86
2021/08/02 12:44:46;;;;;;;3.35;1.50;;;;;;;;;;12902105;23;20013;-87
2021/08/02 12:49:57;;;;;;;2.10;1.50;;;;;;;;;;12876320;23;20023;-82
2021/08/02 12:55:16;;;;;;;6.30;1.95;;;;;;;;;;12902855;23;20008;-83
2021/08/02 13:00:18;;;;;;;2.78;1.80;;;;;;;;;;12869784;23;20024;-83
2021/08/02 13:05:20;;;;;;;3.25;1.50;;;;;;;;;;12871233;23;20004;-84
2021/08/02 13:10:28;;;;;;;4.10;1.85;;;;;;;;;;12839469;23;20023;-85
2021/08/02 13:15:29;;;;;;;3.47;1.80;;;;;;;;;;12884832;23;20004;-85
2021/08/02 13:20:37;;;;;;;4.00;1.58;;;;;;;;;;12860101;23;20004;-84
2021/08/02 13:30:57;;;;;;;2.22;1.70;;;;;;;;;;12862113;23;20391;-84
2021/08/02 13:35:58;;;;;;;2.92;1.40;;;;;;;;;;12855827;23;20009;-84
2021/08/02 13:40:59;;;;;;;2.13;1.50;;;;;;;;;;12855839;23;20032;-85
2021/08/02 13:46:00;;;;;;;3.33;1.48;;;;;;;;;;12854492;23;20005;-84
2021/08/02 13:51:01;;;;;;;3.45;1.55;;;;;;;;;;12853929;23;20028;-84
2021/08/02 13:56:02;;;;;;;3.40;1.25;;;;;;;;;;12852982;23;20004;-84
2021/08/02 14:06:42;;;;;;;2.90;1.30;;;;;;;;;;12883315;23;20012;-85
2021/08/02 14:12:05;;;;;;;3.25;1.45;;;;;;;;;;12859609;23;20000;-84
2021/08/02 14:17:07;;;;;;;3.85;1.73;;;;;;;;;;12863992;23;20008;-85
2021/08/02 14:22:12;;;;;;;3.85;1.60;;;;;;;;;;12879534;23;20019;-85
2021/08/02 14:27:34;;;;;;;3.30;1.50;;;;;;;;;;12862333;23;20004;-85
2021/08/02 14:38:29;;;;;;;4.35;1.40;;;;;;;;;;12738171;23;20008;-85
2021/08/02 14:49:13;;;;;;;4.18;1.90;;;;;;;;;;12796707;23;20009;-84
2021/08/02 15:17:21;;;;;;;3.45;1.30;;;;;;;;;;12627120;23;20015;-87
2021/08/02 15:40:00;;;;;;;4.22;2.80;;;;;;;;;;12445016;23;20461;-87
2021/08/02 16:02:24;;;;;;;4.78;2.10;;;;;;;;;;12600121;23;20026;-87
